• Join FlightAware (Why Join?)
  • Login
  • US Flag 
10:41AM EST


 

Airport Tracker/Info


-or-


 

Live Flight TrackerFlight Track Log ✈ AAY894 ✈ 25-Feb-2014 ✈ KPIE - KIAG

Flight Track Log - Related Links

Times and Time Zones

All times are in EST time to prevent confusion due to time zone crossing. See the AAY894 flight status page for this flight to view local times or setup timezone preferences in your user account.

Time Position Orientation Groundspeed Altitude Reporting Facility
EST Latitude Longitude Course Direction KTS MPH feet Rate Location/Type
06:55AM 27.9167 -82.6833 319° Northwest 133 153 600  Level Tampa TRACON
06:55AM 27.9333 -82.7000 319° Northwest 158 182 1,300 1,538 Climbing Tampa TRACON
06:56AM 27.9833 -82.6667 30° Northeast 224 258 2,600 2,338 Climbing Tampa TRACON
06:58AM 28.1039 -82.6597 North 281 323 7,300 2,434 Climbing Jacksonville Center
07:03AM 28.6336 -82.5860 North 391 450 19,600 2,079 Climbing FlightAware ADS-B
07:06AM 28.9751 -82.5981 358° North 429 494 24,800 1,651 Climbing FlightAware ADS-B
07:07AM 29.0520 -82.6001 359° North 438 504 25,600 1,250 Climbing FlightAware ADS-B
07:07AM 29.1211 -82.6007 360° North 447 514 26,300 1,459 Climbing FlightAware ADS-B
07:08AM 29.2027 -82.6017 359° North 446 513 27,400 1,426 Climbing FlightAware ADS-B
07:09AM 29.3308 -82.6033 359° North 456 525 28,700 1,226 Climbing FlightAware ADS-B
07:10AM 29.4005 -82.6009 North 464 534 29,300 1,164 Climbing FlightAware ADS-B
07:10AM 29.4753 -82.5970 North 466 536 30,000 1,091 Climbing FlightAware ADS-B
07:11AM 29.5426 -82.5942 North 470 541 30,500 1,279 Climbing FlightAware ADS-B
07:11AM 29.6077 -82.5914 North 465 535 31,300 1,574 Climbing FlightAware ADS-B
07:12AM 29.6735 -82.5886 North 462 532 32,100 1,475 Climbing FlightAware ADS-B
07:12AM 29.7383 -82.5859 North 459 528 32,800 1,130 Climbing FlightAware ADS-B
07:13AM 29.8214 -82.5825 North 462 532 33,400 1,114 Climbing FlightAware ADS-B
07:13AM 29.8876 -82.5797 North 458 527 34,100 1,268 Climbing FlightAware ADS-B
07:14AM 29.9703 -82.5760 North 457 526 34,900 771 Climbing FlightAware ADS-B
07:15AM 30.0360 -82.5732 North 455 524 35,000 100 Climbing FlightAware ADS-B
07:15AM 30.0998 -82.5684 North 459 528 35,000  Level FlightAware ADS-B
07:16AM 30.1842 -82.5567 North 462 532 35,000  Level FlightAware ADS-B
07:16AM 30.2483 -82.5482 North 461 531 35,000  Level FlightAware ADS-B
07:17AM 30.3137 -82.5400 North 461 531 35,000  Level FlightAware ADS-B
07:18AM 30.4206 -82.5268 North 461 531 35,000  Level FlightAware ADS-B
07:18AM 30.4858 -82.5186 North 459 528 35,000  Level FlightAware ADS-B
07:19AM 30.5712 -82.5082 North 461 531 35,000  Level FlightAware ADS-B
07:20AM 30.6777 -82.4950 North 462 532 35,000  Level FlightAware ADS-B
07:21AM 30.8489 -82.4739 North 461 531 35,000  Level FlightAware ADS-B
07:22AM 30.9197 -82.4650 North 463 533 35,000 218 Level FlightAware ADS-B
07:23AM 31.0758 -82.4464 North 462 532 35,400 741 Climbing Jacksonville Center
07:24AM 31.2561 -82.4236 North 462 532 37,100 1,137 Climbing Atlanta Center
07:25AM 31.3789 -82.4069 North 456 525 38,300 750 Climbing Atlanta Center
07:26AM 31.4997 -82.3925 North 444 511 38,600 300 Climbing Atlanta Center
07:27AM 31.6228 -82.3781 North 439 505 38,900 200 Climbing Atlanta Center
07:28AM 31.7478 -82.3611 North 444 511 39,000 50 Climbing Atlanta Center
07:29AM 31.8747 -82.3442 North 444 511 39,000  Level Atlanta Center
07:30AM 32.0019 -82.3294 North 444 511 39,000  Level Atlanta Center
07:31AM 32.1289 -82.3122 North 451 519 39,000  Level Atlanta Center
07:32AM 32.2664 -82.2972 North 451 519 39,000  Level Atlanta Center
07:33AM 32.3936 -82.2800 North 451 519 39,000  Level Atlanta Center
07:34AM 32.5164 -82.2628 North 451 519 39,000  Level Atlanta Center
07:35AM 32.6394 -82.2481 North 445 512 39,000  Level Atlanta Center
07:36AM 32.7644 -82.2306 North 445 512 39,000  Level Atlanta Center
07:37AM 32.8894 -82.2131 North 445 512 39,000  Level Atlanta Center
07:38AM 33.0144 -82.1983 North 445 512 39,000  Level Atlanta Center
07:39AM 33.1394 -82.1806 North 450 518 39,000  Level Atlanta Center
07:40AM 33.2622 -82.1656 North 445 512 39,000  Level Atlanta Center
07:41AM 33.3872 -82.1481 North 445 512 39,000  Level Atlanta Center
07:42AM 33.5122 -82.1328 North 445 512 39,000  Level Atlanta Center
07:43AM 33.6247 -82.1178 North 445 512 39,000  Level Atlanta Center
07:44AM 33.7475 -82.0975 North 445 512 39,000  Level Atlanta Center
07:45AM 33.8706 -82.0847 North 445 512 39,000  Level Atlanta Center
07:46AM 33.9975 -82.0669 North 445 512 39,000  Level Atlanta Center
07:52AM 34.7418 -81.9671 North 440 506 39,000  Level FlightAware ADS-B (KDZJ)
07:53AM 34.8135 -81.9573 North 435 501 39,000  Level FlightAware ADS-B (KDZJ)
07:54AM 34.8873 -81.9472 North 435 501 39,000  Level FlightAware ADS-B (KDZJ)
07:55AM 35.0233 -81.9281 North 434 499 39,000  Level FlightAware ADS-B (KDZJ)
07:57AM 35.2680 -81.8610 13° North 434 499 39,000  Level FlightAware ADS-B (KDZJ)
07:57AM 35.3356 -81.8442 13° North 445 512 39,000  Level Atlanta Center
07:58AM 35.4581 -81.8078 14° North 450 518 39,000  Level Atlanta Center
07:59AM 35.5786 -81.7764 12° North 450 518 39,000  Level Atlanta Center
08:00AM 35.7008 -81.7422 13° North 450 518 39,000  Level Atlanta Center
08:01AM 35.8214 -81.7083 13° North 450 518 39,000  Level Atlanta Center
08:02AM 35.9458 -81.6714 14° North 450 518 39,000  Level Atlanta Center
08:03AM 36.0703 -81.6342 14° North 450 518 39,000  Level Atlanta Center
08:04AM 36.1925 -81.5997 13° North 450 518 39,000  Level Atlanta Center
08:05AM 36.3128 -81.5678 12° North 450 518 39,000  Level Atlanta Center
08:06AM 36.4392 -81.5253 15° North 450 518 39,000  Level Atlanta Center
08:07AM 36.5636 -81.4903 13° North 450 518 39,000  Level Atlanta Center
08:08AM 36.6878 -81.4500 15° North 450 518 39,000  Level Atlanta Center
08:10AM 36.8778 -81.3947 13° North 458 527 39,000  Level Indianapolis Center
08:11AM 37.0258 -81.3500 14° North 461 531 39,000  Level Indianapolis Center
08:12AM 37.1444 -81.3147 13° North 466 536 39,000 49 Level Indianapolis Center
08:13AM 37.2706 -81.2775 13° North 466 536 39,100  Climbing Indianapolis Center
08:14AM 37.3944 -81.2403 13° North 464 534 39,000 -49 Descending Indianapolis Center
08:15AM 37.5358 -81.1964 14° North 453 521 39,000  Level Indianapolis Center
08:16AM 37.6572 -81.1611 13° North 453 521 39,000  Level Indianapolis Center
08:17AM 37.7747 -81.1253 14° North 448 516 39,000  Level Indianapolis Center
08:18AM 37.8881 -81.0908 13° North 448 516 39,000  Level Indianapolis Center
08:19AM 38.0328 -81.0500 13° North 447 514 39,000  Level Indianapolis Center
08:20AM 38.1553 -81.0169 12° North 447 514 39,000  Level Indianapolis Center
08:21AM 38.2772 -80.9794 14° North 447 514 39,000  Level Indianapolis Center
08:22AM 38.3992 -80.9447 13° North 448 516 39,000  Level Indianapolis Center
08:23AM 38.5222 -80.9083 13° North 451 519 39,000  Level Indianapolis Center
08:24AM 38.6456 -80.8722 13° North 453 521 39,000  Level Indianapolis Center
08:25AM 38.7936 -80.8289 13° North 455 524 39,000  Level Indianapolis Center
08:26AM 38.9189 -80.7908 13° North 460 529 39,000  Level Indianapolis Center
08:27AM 39.0450 -80.7539 13° North 462 532 39,000  Level Indianapolis Center
08:28AM 39.1725 -80.7144 13° North 468 539 39,000  Level Indianapolis Center
08:29AM 39.2992 -80.6772 13° North 468 539 39,000  Level Indianapolis Center
08:31AM 39.4236 -80.6397 13° North 464 534 39,000 -1,073 Level Indianapolis Center
08:32AM 39.5497 -80.6047 12° North 463 533 36,800 -933 Descending Indianapolis Center
08:37AM 40.2451 -80.3078 12° North 467 537 33,000 -644 Descending FlightAware ADS-B
08:37AM 40.3080 -80.2800 19° North 468 539 33,000  Level FlightAware ADS-B
08:38AM 40.3672 -80.2489 22° Northeast 483 556 33,000  Level FlightAware ADS-B
08:39AM 40.4447 -80.1970 27° Northeast 482 555 33,000  Level FlightAware ADS-B
08:39AM 40.5111 -80.1525 27° Northeast 481 554 33,000 -1,114 Level FlightAware ADS-B
08:40AM 40.5858 -80.1026 27° Northeast 478 550 31,700 -1,739 Descending FlightAware ADS-B
08:40AM 40.6480 -80.0594 28° Northeast 479 551 31,000 -636 Descending FlightAware ADS-B
08:41AM 40.7167 -80.0120 28° Northeast 478 550 31,000 -1,133 Level FlightAware ADS-B
08:42AM 40.8219 -79.9387 28° Northeast 468 539 29,300 -1,931 Descending FlightAware ADS-B
08:42AM 40.8704 -79.9055 27° Northeast 452 520 28,200 -609 Descending FlightAware ADS-B
08:44AM 41.0564 -79.7784 27° Northeast 451 519 28,000 -96 Descending FlightAware ADS-B (CYYZ)
08:44AM 41.1133 -79.7394 27° Northeast 452 520 28,000  Level FlightAware ADS-B (CYYZ)
08:44AM 41.1133 -79.7394 360° North 451 519 28,000  Level FlightAware ADS-B (EPLB / LUZ)
08:45AM 41.1689 -79.7017 27° Northeast 451 519 28,000  Level FlightAware ADS-B (CYYZ)
08:45AM 41.1649 -79.7044 207° Southwest 451 519 28,000  Level FlightAware ADS-B (EPLB / LUZ)
08:45AM 41.2249 -79.6638 27° Northeast 452 520 28,000  Level FlightAware ADS-B (CYYZ)
08:46AM 41.2617 -79.6390 27° Northeast 451 519 28,000  Level FlightAware ADS-B (EPLB / LUZ)
08:46AM 41.2800 -79.6266 27° Northeast 452 520 28,000  Level FlightAware ADS-B (CYYZ)
08:46AM 41.3348 -79.5896 27° Northeast 452 520 28,000  Level FlightAware ADS-B (CYYZ)
08:46AM 41.3042 -79.6102 207° Southwest 451 519 28,000  Level FlightAware ADS-B (EPLB / LUZ)
08:47AM 41.3931 -79.5504 27° Northeast 451 519 28,000  Level FlightAware ADS-B (CYYZ)
08:47AM 41.4340 -79.5230 27° Northeast 452 520 28,000  Level FlightAware ADS-B (CYYZ)
08:48AM 41.5047 -79.4760 26° Northeast 452 520 28,000  Level FlightAware ADS-B (CYYZ)
08:48AM 41.5606 -79.4391 26° Northeast 453 521 28,000  Level FlightAware ADS-B (CYYZ)
08:49AM 41.6163 -79.4023 26° Northeast 452 520 28,000  Level FlightAware ADS-B (CYYZ)
08:49AM 41.6728 -79.3661 26° Northeast 445 512 28,000 -360 Level FlightAware ADS-B (CYYZ)
08:50AM 41.7115 -79.3518 15° North 425 489 27,700 -857 Descending FlightAware ADS-B (CYYZ)
08:50AM 41.7684 -79.3364 11° North 423 487 27,300 -900 Descending FlightAware ADS-B (CYYZ)
08:51AM 41.8265 -79.3199 12° North 418 481 26,800 -984 Descending FlightAware ADS-B (CYYZ)
08:51AM 41.8794 -79.3047 12° North 413 475 26,300 -1,279 Descending FlightAware ADS-B (CYYZ)
08:52AM 41.9339 -79.2890 12° North 410 472 25,500 -2,125 Descending FlightAware ADS-B (CYYZ)
08:52AM 41.9725 -79.2780 12° North 404 465 24,600 -2,000 Descending FlightAware ADS-B (EPLB / LUZ)
08:52AM 41.9935 -79.2720 12° North 404 465 24,500 -1,756 Descending FlightAware ADS-B (CYYZ)
08:53AM 42.0481 -79.2563 12° North 398 458 23,400 -2,229 Descending FlightAware ADS-B (CYYZ)
08:53AM 42.0564 -79.2540 12° North 396 456 23,200 -2,000 Descending FlightAware ADS-B (EPLB / LUZ)
08:53AM 42.1006 -79.2414 12° North 393 452 22,400 -2,154 Descending FlightAware ADS-B (CYYZ)
08:53AM 42.1277 -79.2337 12° North 393 452 21,800 -2,323 Descending FlightAware ADS-B (EPLB / LUZ)
08:54AM 42.1527 -79.2265 12° North 392 451 21,200 -2,000 Descending FlightAware ADS-B (CYYZ)
08:54AM 42.2068 -79.2109 12° North 387 445 20,300 -2,057 Descending FlightAware ADS-B (CYYZ)
08:54AM 42.2050 -79.2114 191° South 383 441 20,000 -1,935 Descending FlightAware ADS-B (EPLB / LUZ)
08:55AM 42.2602 -79.1956 12° North 379 436 19,300 -1,902 Descending FlightAware ADS-B (CYYZ)
08:55AM 42.2743 -79.1915 12° North 375 432 18,700 -1,862 Descending FlightAware ADS-B (EPLB / LUZ)
08:55AM 42.3095 -79.1811 12° North 373 429 18,400 -1,600 Descending FlightAware ADS-B (CYYZ)
08:56AM 42.3381 -79.1727 12° North 369 425 17,900 -2,000 Descending FlightAware ADS-B (EPLB / LUZ)
08:56AM 42.3606 -79.1661 12° North 367 422 17,400 -1,846 Descending FlightAware ADS-B (CYYZ)
08:56AM 42.3955 -79.1559 12° North 361 415 16,700 -1,800 Descending FlightAware ADS-B (EPLB / LUZ)
08:56AM 42.4102 -79.1517 12° North 360 414 16,500 -2,129 Descending FlightAware ADS-B (CYYZ)
08:57AM 42.4534 -79.1396 12° North 352 405 15,600 -1,935 Descending FlightAware ADS-B (EPLB / LUZ)
08:57AM 42.4581 -79.1382 12° North 352 405 15,500 -1,455 Descending FlightAware ADS-B (CYYZ)
08:57AM 42.5051 -79.1247 12° North 338 389 14,800 -1,729 Descending FlightAware ADS-B (CYYZ)
08:58AM 42.5494 -79.1122 12° North 319 367 13,800 -2,148 Descending FlightAware ADS-B (CYYZ)
08:59AM 42.6200 -79.0933 11° North 296 341 11,900 -2,100 Descending FlightAware ADS-B (CYYZ)
08:59AM 42.6588 -79.0822 12° North 277 319 11,000 -2,100 Descending FlightAware ADS-B (CYYZ)
09:00AM 42.6955 -79.0715 12° North 270 311 9,800 -2,348 Descending FlightAware ADS-B (CYYZ)
09:00AM 42.7135 -79.0666 11° North 267 307 9,200 -2,276 Descending FlightAware ADS-B (CYYZ)
09:00AM 42.7319 -79.0619 11° North 268 308 8,700 -1,655 Descending FlightAware ADS-B (CYYZ)
09:00AM 42.7500 -79.0574 10° North 262 302 8,400 -1,548 Descending FlightAware ADS-B (CYYZ)
09:01AM 42.7673 -79.0530 11° North 260 299 7,900 -1,800 Descending FlightAware ADS-B (CYYZ)
09:01AM 42.7851 -79.0485 11° North 259 298 7,500 -1,655 Descending FlightAware ADS-B (CYYZ)
09:01AM 42.8032 -79.0440 10° North 257 296 7,100 -1,029 Descending FlightAware ADS-B (CYYZ)
09:01AM 42.8264 -79.0385 10° North 254 292 6,900 -462 Descending FlightAware ADS-B (CYYZ)
09:02AM 42.8324 -79.0362 15° North 258 297 6,900 -400 Level FlightAware ADS-B (CYYZ)
09:02AM 42.8423 -79.0290 28° Northeast 266 306 6,800 -429 Descending FlightAware ADS-B (CYYZ)
09:02AM 42.8476 -79.0229 40° Northeast 267 307 6,800 -600 Level FlightAware ADS-B (CYYZ)
09:02AM 42.8513 -79.0182 43° Northeast 265 305 6,700 -1,200 Descending FlightAware ADS-B (CYYZ)
09:02AM 42.8650 -78.9996 45° Northeast 263 303 6,400 -1,600 Descending FlightAware ADS-B (CYYZ)
09:02AM 42.8772 -78.9830 45° Northeast 263 303 5,900 -1,548 Descending FlightAware ADS-B (CYYZ)
09:03AM 42.8908 -78.9646 45° Northeast 255 293 5,600 -1,000 Descending FlightAware ADS-B (CYYZ)
09:03AM 42.9018 -78.9495 45° Northeast 241 277 5,400 -1,043 Descending FlightAware ADS-B (CYYZ)
09:03AM 42.9087 -78.9400 45° Northeast 237 273 5,200 -1,895 Descending FlightAware ADS-B (EPLB / LUZ)
09:03AM 42.9174 -78.9283 45° Northeast 237 273 4,800 -1,615 Descending FlightAware ADS-B (CYYZ)
09:03AM 42.9276 -78.9151 44° Northeast 238 274 4,500 -1,161 Descending FlightAware ADS-B (CYYZ)
09:04AM 42.9400 -78.8988 44° Northeast 233 268 4,200 -1,375 Descending FlightAware ADS-B (CYYZ)
09:04AM 42.9660 -78.8644 44° Northeast 221 254 3,400 -900 Descending FlightAware ADS-B (EPLB / LUZ)
09:05AM 42.9873 -78.8474 30° Northeast 203 234 3,300 -429 Descending FlightAware ADS-B (CYYZ)
09:05AM 43.0015 -78.8408 19° North 189 217 3,100 -774 Descending FlightAware ADS-B (CYYZ)
09:05AM 43.0155 -78.8363 13° North 178 205 2,900 -453 Descending FlightAware ADS-B (CYYZ)
09:06AM 43.0500 -78.8333 13° North 173 199 2,700 -408 Descending Buffalo TRACON
09:07AM 43.1000 -78.8167 14° North 176 203 2,200 -571 Descending Buffalo TRACON
09:08AM 43.1167 -78.8667 295° West 113 130 1,500 -650 Descending Buffalo TRACON
09:09AM 43.1167 -78.9167 270° West 117 135 900 -600 Descending Buffalo TRACON
09:11AM 43.1000 -78.9333 270° West  Level FlightAware Approximate